Flight Track Log - Related Links

Times and Time Zones

All times are in EDT time to prevent confusion due to time zone crossing. See the EJA705 flight status page for this flight to view local times or setup timezone preferences in your user account.

Time Position Orientation Groundspeed Altitude Reporting Facility
EDT Latitude Longitude Course Direction KTS MPH feet Rate Location/Type
Wed 12:36:32 AM 40.8000 -74.0833 311° West 195 224 1,800  Level New York TRACON
Wed 12:37:32 AM 40.8333 -74.1333 307° West 197 227 3,300 1,958 Climbing New York TRACON
Wed 12:39:42 AM 40.9258 -74.2947 320° Northwest 257 296 8,000 1,746 Climbing New York Center
Wed 12:40:41 AM 40.9861 -74.3611 323° Northwest 273 314 8,800 1,250 Climbing New York Center
Wed 12:41:42 AM 41.0469 -74.4219 294° West 278 320 10,500 1,800 Climbing New York Center
Wed 12:42:41 AM 41.0811 -74.5231 293° West 299 344 12,400 2,300 Climbing New York Center
Wed 12:43:42 AM 41.1228 -74.6519 298° West 341 392 15,100 2,400 Climbing New York Center
Wed 12:44:41 AM 41.1650 -74.7592 300° West 355 409 17,200 2,441 Climbing New York Center
Wed 12:45:40 AM 41.2228 -74.8950 300° West 374 430 19,900 2,550 Climbing New York Center
Wed 12:46:41 AM 41.2731 -75.0111 300° West 387 445 22,300 2,262 Climbing New York Center
Wed 12:47:42 AM 41.3286 -75.1389 300° West 392 451 24,500 1,785 Climbing New York Center
Wed 12:48:42 AM 41.3881 -75.2756 300° West 410 472 25,900 1,424 Climbing New York Center
Wed 12:49:40 AM 41.4472 -75.4150 295° West 430 495 27,300 1,400 Climbing New York Center
Wed 12:50:42 AM 41.4997 -75.5656 291° West 441 507 28,700 1,328 Climbing New York Center
Wed 12:51:42 AM 41.5453 -75.7211 291° West 454 522 30,000 661 Climbing New York Center
Wed 12:52:40 AM 41.5906 -75.8800 290° West 459 528 30,000  Level New York Center
Wed 12:53:42 AM 41.6356 -76.0444 291° West 459 528 30,000  Level New York Center
Wed 12:54:42 AM 41.6822 -76.2064 291° West 459 528 30,000 51 Level New York Center
Wed 12:55:39 AM 41.7289 -76.3686 289° West 459 528 30,100 821 Climbing New York Center
Wed 12:56:39 AM 41.7747 -76.5450 277° West 464 534 31,600 1,366 Climbing New York Center
Wed 12:57:42 AM 41.7894 -76.7103 277° West 446 513 32,900 1,122 Climbing New York Center
Wed 12:58:42 AM 41.8042 -76.8703 278° West 441 507 33,900 550 Climbing New York Center
Wed 12:59:42 AM 41.8208 -77.0333 276° West 446 513 34,000 30 Climbing New York Center
Wed 01:02:04 AM 41.8547 -77.4494 277° West 462 532 34,000  Level Cleveland Center
Wed 01:03:04 AM 41.8697 -77.6189 276° West 462 532 34,000  Level Cleveland Center
Wed 01:04:04 AM 41.8822 -77.7914 276° West 462 532 34,000  Level Cleveland Center
Wed 01:05:04 AM 41.8967 -77.9636 276° West 462 532 34,000  Level Cleveland Center
Wed 01:06:04 AM 41.9108 -78.1333 275° West 467 537 34,000  Level Cleveland Center
Wed 01:07:04 AM 41.9228 -78.3058 275° West 467 537 34,000  Level Cleveland Center
Wed 01:08:04 AM 41.9344 -78.4758 277° West 462 532 34,000  Level Cleveland Center
Wed 01:09:04 AM 41.9500 -78.6483 275° West 462 532 34,000  Level Cleveland Center
Wed 01:10:04 AM 41.9611 -78.8156 275° West 462 532 34,000  Level Cleveland Center
Wed 01:11:04 AM 41.9717 -78.9661 276° West 462 532 34,000  Level Cleveland Center
Wed 01:12:04 AM 41.9842 -79.1306 275° West 462 532 34,000  Level Cleveland Center
Wed 01:13:04 AM 41.9944 -79.2981 276° West 462 532 34,000  Level Cleveland Center
Wed 01:14:04 AM 42.0067 -79.4656 276° West 462 532 34,000  Level Cleveland Center
Wed 01:15:04 AM 42.0186 -79.6300 274° West 462 532 34,000  Level Cleveland Center
Wed 01:16:04 AM 42.0281 -79.7978 276° West 457 526 34,000  Level Cleveland Center
Wed 01:17:04 AM 42.0397 -79.9625 274° West 457 526 34,000  Level Cleveland Center
Wed 01:18:04 AM 42.0489 -80.1442 275° West 451 519 34,000  Level Cleveland Center
Wed 01:19:04 AM 42.0597 -80.3064 274° West 451 519 34,000 300 Level Cleveland Center
Wed 01:20:04 AM 42.0683 -80.4714 274° West 445 512 34,600 850 Climbing Cleveland Center
Wed 01:21:04 AM 42.0767 -80.6336 274° West 439 505 35,700 700 Climbing Cleveland Center
Wed 01:22:04 AM 42.0847 -80.7903 274° West 434 499 36,000 150 Climbing Cleveland Center
Wed 01:23:04 AM 42.0928 -80.9358 275° West 434 499 36,000  Level Cleveland Center
Wed 01:24:04 AM 42.1025 -81.1008 274° West 443 510 36,000  Level Cleveland Center
Wed 01:25:04 AM 42.1122 -81.2717 273° West 449 517 36,000  Level Cleveland Center
Wed 01:26:04 AM 42.1194 -81.4369 274° West 449 517 36,000  Level Cleveland Center
Wed 01:27:04 AM 42.1283 -81.6050 273° West 449 517 36,000  Level Cleveland Center
Wed 01:28:04 AM 42.1350 -81.7731 274° West 460 529 36,000  Level Cleveland Center
Wed 01:29:04 AM 42.1436 -81.9442 274° West 460 529 36,000  Level Cleveland Center
Wed 01:30:04 AM 42.1519 -82.1125 273° West 460 529 36,000 -50 Level Cleveland Center
Wed 01:31:04 AM 42.1578 -82.2944 275° West 455 524 35,900  Descending Cleveland Center
Wed 01:32:04 AM 42.1675 -82.4631 273° West 455 524 36,000 50 Climbing Cleveland Center
Wed 01:33:04 AM 42.1731 -82.6283 273° West 450 518 36,000  Level Cleveland Center
Wed 01:34:04 AM 42.1783 -82.7911 273° West 442 509 36,000  Level Cleveland Center
Wed 01:35:04 AM 42.1856 -82.9594 271° West 442 509 36,000  Level Cleveland Center
Wed 01:36:04 AM 42.1883 -83.1222 273° West 442 509 36,000  Level Cleveland Center
Wed 01:37:04 AM 42.1950 -83.2878 272° West 442 509 36,000  Level Cleveland Center
Wed 01:38:04 AM 42.1994 -83.4478 274° West 442 509 36,000  Level Cleveland Center
Wed 01:39:04 AM 42.2078 -83.6081 271° West 442 509 36,000 -50 Level Cleveland Center
Wed 01:40:04 AM 42.2094 -83.7764 273° West 437 503 35,900  Descending Cleveland Center
Wed 01:41:04 AM 42.2153 -83.9392 273° West 437 503 36,000 36 Climbing Cleveland Center
Wed 01:42:51 AM 42.2256 -84.2203 270° West 414 476 36,000  Level Chicago Center
Wed 01:43:51 AM 42.2264 -84.3831 272° West 425 489 36,000  Level Chicago Center
Wed 01:44:51 AM 42.2303 -84.5231 272° West 425 489 36,000  Level Chicago Center
Wed 01:45:51 AM 42.2347 -84.6797 271° West 420 483 36,000  Level Chicago Center
Wed 01:46:51 AM 42.2369 -84.8397 272° West 425 489 36,000  Level Chicago Center
Wed 01:47:51 AM 42.2408 -84.9936 271° West 420 483 36,000  Level Chicago Center
Wed 01:48:51 AM 42.2425 -85.1533 272° West 420 483 36,000  Level Chicago Center
Wed 01:49:51 AM 42.2467 -85.3300 270° West 425 489 36,000  Level Chicago Center
Wed 01:50:51 AM 42.2458 -85.4844 272° West 420 483 36,000 450 Level Chicago Center
Wed 01:51:51 AM 42.2489 -85.6414 271° West 420 483 36,900 1,000 Climbing Chicago Center
Wed 01:52:51 AM 42.2514 -85.7842 270° West 409 471 38,000 550 Climbing Chicago Center
Wed 01:53:51 AM 42.2517 -85.9300 272° West 403 464 38,000  Level Chicago Center
Wed 01:54:51 AM 42.2556 -86.0675 270° West 403 464 38,000  Level Chicago Center
Wed 01:55:51 AM 42.2556 -86.2161 270° West 403 464 38,000  Level Chicago Center
Wed 01:56:51 AM 42.2556 -86.3678 271° West 403 464 38,000  Level Chicago Center
Wed 01:57:51 AM 42.2572 -86.5164 271° West 403 464 38,000  Level Chicago Center
Wed 01:58:51 AM 42.2589 -86.6706 272° West 403 464 38,000  Level Chicago Center
Wed 01:59:51 AM 42.2625 -86.8331 269° West 403 464 38,000  Level Chicago Center
Wed 02:00:51 AM 42.2614 -86.9819 271° West 403 464 38,000  Level Chicago Center
Wed 02:01:51 AM 42.2625 -87.1361 269° West 409 471 38,000  Level Chicago Center
Wed 02:02:51 AM 42.2611 -87.2878 269° West 409 471 38,000  Level Chicago Center
Wed 02:03:51 AM 42.2594 -87.4281 270° West 409 471 38,000  Level Chicago Center
Wed 02:04:51 AM 42.2597 -87.5825 269° West 414 476 38,000  Level Chicago Center
Wed 02:05:51 AM 42.2578 -87.7367 270° West 414 476 38,000  Level Chicago Center
Wed 02:06:51 AM 42.2578 -87.8883 270° West 414 476 38,000  Level Chicago Center
Wed 02:07:51 AM 42.2575 -88.0453 269° West 419 482 38,000  Level Chicago Center
Wed 02:08:51 AM 42.2550 -88.1997 270° West 419 482 38,000  Level Chicago Center
Wed 02:09:51 AM 42.2544 -88.3567 269° West 419 482 38,000  Level Chicago Center
Wed 02:10:51 AM 42.2517 -88.5111 270° West 419 482 38,000  Level Chicago Center
Wed 02:11:51 AM 42.2506 -88.6683 268° West 419 482 38,000  Level Chicago Center
Wed 02:12:51 AM 42.2472 -88.8253 267° West 419 482 38,000  Level Chicago Center
Wed 02:13:51 AM 42.2414 -88.9769 269° West 411 473 38,000  Level Chicago Center
Wed 02:14:51 AM 42.2397 -89.1367 268° West 422 486 38,000  Level Chicago Center
Wed 02:15:51 AM 42.2358 -89.2908 269° West 422 486 38,000  Level Chicago Center
Wed 02:16:51 AM 42.2336 -89.4508 269° West 422 486 38,000  Level Chicago Center
Wed 02:17:51 AM 42.2314 -89.6106 268° West 422 486 38,000  Level Chicago Center
Wed 02:18:51 AM 42.2267 -89.7817 268° West 422 486 38,000  Level Chicago Center
Wed 02:19:51 AM 42.2219 -89.9275 271° West 422 486 38,000  Level Chicago Center
Wed 02:20:51 AM 42.2231 -90.0817 268° West 422 486 38,000  Level Chicago Center
Wed 02:21:51 AM 42.2178 -90.2528 267° West 422 486 38,000  Level Chicago Center
Wed 02:22:51 AM 42.2122 -90.4094 267° West 422 486 38,000  Level Chicago Center
Wed 02:23:51 AM 42.2064 -90.5664 269° West 422 486 38,000  Level Chicago Center
Wed 02:24:51 AM 42.2047 -90.7178 268° West 422 486 38,000  Level Chicago Center
Wed 02:25:51 AM 42.2008 -90.8719 267° West 417 480 38,000  Level Chicago Center
Wed 02:26:51 AM 42.1944 -91.0258 267° West 417 480 38,000  Level Chicago Center
Wed 02:27:51 AM 42.1881 -91.1825 267° West 417 480 38,000  Level Chicago Center
Wed 02:28:51 AM 42.1811 -91.3392 267° West 417 480 38,000  Level Chicago Center
Wed 02:29:51 AM 42.1742 -91.4961 268° West 417 480 38,000  Level Chicago Center
Wed 02:30:51 AM 42.1692 -91.6528 266° West 422 486 38,000  Level Chicago Center
Wed 02:31:51 AM 42.1617 -91.8094 266° West 422 486 38,000  Level Chicago Center
Wed 02:32:51 AM 42.1539 -91.9686 268° West 427 491 38,000  Level Chicago Center
Wed 02:33:51 AM 42.1503 -92.1311 265° West 427 491 38,000  Level Chicago Center
Wed 02:34:51 AM 42.1400 -92.2875 267° West 427 491 38,000  Level Chicago Center
Wed 02:35:51 AM 42.1336 -92.4494 266° West 427 491 38,000  Level Chicago Center
Wed 02:36:51 AM 42.1253 -92.6061 266° West 427 491 38,000  Level Chicago Center
Wed 02:38:44 AM 42.1103 -92.8939 266° West 428 493 38,000  Level Minneapolis Center
Wed 02:39:44 AM 42.1025 -93.0475 265° West 428 493 38,000  Level Minneapolis Center
Wed 02:40:44 AM 42.0925 -93.2097 267° West 423 487 38,000  Level Minneapolis Center
Wed 02:41:44 AM 42.0867 -93.3689 264° West 423 487 38,000  Level Minneapolis Center
Wed 02:42:44 AM 42.0742 -93.5197 267° West 423 487 38,000  Level Minneapolis Center
Wed 02:43:44 AM 42.0675 -93.6817 265° West 429 494 38,000  Level Minneapolis Center
Wed 02:44:44 AM 42.0567 -93.8381 269° West 429 494 38,000  Level Minneapolis Center
Wed 02:45:44 AM 42.0539 -94.0142 265° West 422 486 38,000  Level Minneapolis Center
Wed 02:46:44 AM 42.0425 -94.1731 264° West 422 486 38,000  Level Minneapolis Center
Wed 02:47:44 AM 42.0308 -94.3319 265° West 427 491 38,000  Level Minneapolis Center
Wed 02:48:44 AM 42.0211 -94.4908 265° West 427 491 38,000  Level Minneapolis Center
Wed 02:49:44 AM 42.0111 -94.6500 265° West 427 491 38,000  Level Minneapolis Center
Wed 02:50:44 AM 42.0008 -94.8114 265° West 427 491 38,000  Level Minneapolis Center
Wed 02:51:44 AM 41.9906 -94.9731 265° West 433 498 38,000  Level Minneapolis Center
Wed 02:52:44 AM 41.9797 -95.1317 264° West 438 504 38,000  Level Minneapolis Center
Wed 02:53:44 AM 41.9667 -95.2958 265° West 443 510 38,000  Level Minneapolis Center
Wed 02:54:44 AM 41.9556 -95.4572 264° West 443 510 38,000  Level Minneapolis Center
Wed 02:55:44 AM 41.9442 -95.6131 265° West 438 504 38,000  Level Minneapolis Center
Wed 02:56:44 AM 41.9328 -95.7714 263° West 438 504 38,000  Level Minneapolis Center
Wed 02:57:44 AM 41.9189 -95.9297 264° West 433 498 38,000  Level Minneapolis Center
Wed 02:58:44 AM 41.9069 -96.0881 265° West 433 498 38,000  Level Minneapolis Center
Wed 02:59:44 AM 41.8969 -96.2325 263° West 438 504 38,000  Level Minneapolis Center
Wed 03:00:44 AM 41.8825 -96.3906 264° West 438 504 38,000  Level Minneapolis Center
Wed 03:01:44 AM 41.8697 -96.5489 264° West 438 504 38,000  Level Minneapolis Center
Wed 03:02:44 AM 41.8569 -96.7069 263° West 438 504 38,000  Level Minneapolis Center
Wed 03:03:44 AM 41.8417 -96.8619 264° West 438 504 38,000  Level Minneapolis Center
Wed 03:04:44 AM 41.8283 -97.0197 263° West 438 504 38,000  Level Minneapolis Center
Wed 03:05:44 AM 41.8147 -97.1778 264° West 438 504 38,000  Level Minneapolis Center
Wed 03:06:44 AM 41.8031 -97.3356 262° West 438 504 38,000  Level Minneapolis Center
Wed 03:07:44 AM 41.7869 -97.4931 263° West 438 504 38,000  Level Minneapolis Center
Wed 03:08:44 AM 41.7728 -97.6478 263° West 433 498 38,000  Level Minneapolis Center
Wed 03:09:44 AM 41.7583 -97.8053 263° West 433 498 38,000  Level Minneapolis Center
Wed 03:10:44 AM 41.7436 -97.9600 261° West 428 493 38,000  Level Minneapolis Center
Wed 03:11:44 AM 41.7244 -98.1169 266° West 428 493 38,000  Level Minneapolis Center
Wed 03:12:44 AM 41.7150 -98.2858 262° West 423 487 38,000  Level Minneapolis Center
Wed 03:15:07 AM 41.6758 -98.6586 262° West 422 486 38,000  Level Denver Center
Wed 03:16:07 AM 41.6594 -98.8192 262° West 432 497 38,000  Level Denver Center
Wed 03:17:07 AM 41.6428 -98.9769 262° West 437 503 38,000  Level Denver Center
Wed 03:18:07 AM 41.6258 -99.1375 261° West 437 503 38,000  Level Denver Center
Wed 03:19:07 AM 41.6083 -99.2922 263° West 432 497 38,000  Level Denver Center
Wed 03:20:07 AM 41.5931 -99.4497 261° West 432 497 38,000  Level Denver Center
Wed 03:21:07 AM 41.5767 -99.5931 262° West 432 497 38,000  Level Denver Center
Wed 03:22:07 AM 41.5575 -99.7647 261° West 432 497 38,000  Level Denver Center
Wed 03:23:07 AM 41.5394 -99.9247 261° West 432 497 38,000  Level Denver Center
Wed 03:24:07 AM 41.5225 -100.0681 261° West 432 497 38,000  Level Denver Center
Wed 03:25:07 AM 41.5039 -100.2225 261° West 432 497 38,000  Level Denver Center
Wed 03:26:07 AM 41.4839 -100.3964 261° West 432 497 38,000  Level Denver Center
Wed 03:27:07 AM 41.4650 -100.5533 262° West 432 497 38,000  Level Denver Center
Wed 03:28:07 AM 41.4492 -100.6961 259° West 432 497 38,000  Level Denver Center
Wed 03:29:07 AM 41.4242 -100.8675 262° West 432 497 38,000  Level Denver Center
Wed 03:30:07 AM 41.4086 -101.0211 261° West 432 497 38,000  Level Denver Center
Wed 03:31:07 AM 41.3903 -101.1667 260° West 437 503 38,000  Level Denver Center
Wed 03:32:07 AM 41.3700 -101.3178 260° West 431 496 38,000  Level Denver Center
Wed 03:33:07 AM 41.3483 -101.4883 260° West 431 496 38,000  Level Denver Center
Wed 03:34:07 AM 41.3278 -101.6419 261° West 431 496 38,000  Level Denver Center
Wed 03:35:07 AM 41.3106 -101.7844 261° West 431 496 38,000  Level Denver Center
Wed 03:36:07 AM 41.2917 -101.9350 259° West 431 496 38,000  Level Denver Center
Wed 03:37:07 AM 41.2669 -102.1053 260° West 431 496 38,000  Level Denver Center
Wed 03:38:07 AM 41.2475 -102.2586 260° West 431 496 38,000  Level Denver Center
Wed 03:39:07 AM 41.2297 -102.3978 260° West 431 496 38,000  Level Denver Center
Wed 03:40:07 AM 41.2083 -102.5647 259° West 431 496 38,000  Level Denver Center
Wed 03:41:07 AM 41.1861 -102.7178 258° West 431 496 38,000  Level Denver Center
Wed 03:42:07 AM 41.1619 -102.8711 259° West 431 496 38,000  Level Denver Center
Wed 03:43:07 AM 41.1394 -103.0211 261° West 431 496 38,000  Level Denver Center
Wed 03:44:07 AM 41.1225 -103.1572 260° West 426 490 38,000  Level Denver Center
Wed 03:45:07 AM 41.1017 -103.3069 258° West 426 490 38,000  Level Denver Center
Wed 03:46:07 AM 41.0747 -103.4736 259° West 421 484 38,000  Level Denver Center
Wed 03:47:07 AM 41.0536 -103.6206 258° West 421 484 38,000  Level Denver Center
Wed 03:48:07 AM 41.0300 -103.7731 259° West 421 484 38,000  Level Denver Center
Wed 03:49:07 AM 41.0103 -103.9086 260° West 421 484 38,000  Level Denver Center
Wed 03:50:07 AM 40.9867 -104.0772 261° West 421 484 38,000  Level Denver Center
Wed 03:51:07 AM 40.9706 -104.2128 257° West 426 490 38,000  Level Denver Center
Wed 03:52:07 AM 40.9464 -104.3564 259° West 421 484 38,000  Level Denver Center
Wed 03:53:07 AM 40.9239 -104.5083 258° West 412 474 38,000  Level Denver Center
Wed 03:54:07 AM 40.8992 -104.6575 258° West 412 474 38,000  Level Denver Center
Wed 03:55:07 AM 40.8764 -104.8036 258° West 412 474 38,000  Level Denver Center
Wed 03:56:07 AM 40.8533 -104.9469 259° West 406 467 38,000  Level Denver Center
Wed 03:57:07 AM 40.8303 -105.0983 257° West 412 474 38,000  Level Denver Center
Wed 03:58:07 AM 40.8028 -105.2525 259° West 406 467 38,000  Level Denver Center
Wed 03:59:07 AM 40.7814 -105.3956 257° West 401 461 38,000 100 Level Denver Center
Wed 04:00:07 AM 40.7575 -105.5331 257° West 396 456 38,200 550 Climbing Denver Center
Wed 04:01:07 AM 40.7336 -105.6731 258° West 391 450 39,100 900 Climbing Denver Center
Wed 04:02:07 AM 40.7114 -105.8050 258° West 385 443 40,000 450 Climbing Denver Center
Wed 04:03:07 AM 40.6892 -105.9422 257° West 380 437 40,000  Level Denver Center
Wed 04:04:07 AM 40.6647 -106.0764 258° West 380 437 40,000  Level Denver Center
Wed 04:05:07 AM 40.6442 -106.2053 258° West 366 421 40,000  Level Denver Center
Wed 04:06:07 AM 40.6256 -106.3228 258° West 361 415 40,000  Level Denver Center
Wed 04:07:07 AM 40.6047 -106.4514 257° West 361 415 40,000 50 Level Denver Center
Wed 04:08:07 AM 40.5797 -106.5992 257° West 367 422 40,100 -400 Climbing Denver Center
Wed 04:09:07 AM 40.5586 -106.7192 257° West 365 420 39,200 -900 Descending Denver Center
Wed 04:10:07 AM 40.5375 -106.8422 256° West 353 406 38,300 -600 Descending Denver Center
Wed 04:11:07 AM 40.5142 -106.9622 257° West 348 400 38,000 -150 Descending Denver Center
Wed 04:12:07 AM 40.4928 -107.0850 255° West 348 400 38,000  Level Denver Center
Wed 04:13:07 AM 40.4692 -107.2022 257° West 340 391 38,000  Level Denver Center
Wed 04:14:07 AM 40.4494 -107.3139 257° West 340 391 38,000  Level Denver Center
Wed 04:15:07 AM 40.4278 -107.4364 255° West 346 398 38,000  Level Denver Center
Wed 04:16:07 AM 40.4014 -107.5694 258° West 346 398 38,000  Level Denver Center
Wed 04:17:07 AM 40.3814 -107.6892 256° West 338 389 38,000  Level Denver Center
Wed 04:18:07 AM 40.3617 -107.7950 256° West 338 389 38,000  Level Denver Center
Wed 04:19:07 AM 40.3369 -107.9281 256° West 343 395 38,000  Level Denver Center
Wed 04:20:07 AM 40.3147 -108.0475 255° West 343 395 38,000  Level Denver Center
Wed 04:21:07 AM 40.2900 -108.1694 256° West 343 395 38,000  Level Denver Center
Wed 04:22:07 AM 40.2694 -108.2750 257° West 343 395 38,000  Level Denver Center
Wed 04:23:07 AM 40.2467 -108.4078 254° West 338 389 38,000  Level Denver Center
Wed 04:24:07 AM 40.2214 -108.5267 257° West 338 389 38,000  Level Denver Center
Wed 04:25:07 AM 40.2028 -108.6347 255° West 338 389 38,000  Level Denver Center
Wed 04:26:21 AM 40.1714 -108.7864 255° West 332 382 38,000  Level Salt Lake Center
Wed 04:27:21 AM 40.1492 -108.8969 256° West 331 381 38,000  Level Salt Lake Center
Wed 04:28:22 AM 40.1272 -109.0111 256° West 336 387 38,000  Level Salt Lake Center
Wed 04:29:22 AM 40.1006 -109.1467 255° West 343 395 38,000  Level Salt Lake Center
Wed 04:30:22 AM 40.0772 -109.2611 255° West 343 395 38,000  Level Salt Lake Center
Wed 04:31:22 AM 40.0542 -109.3764 255° West 344 396 38,000  Level Salt Lake Center
Wed 04:32:22 AM 40.0269 -109.5103 255° West 343 395 38,000  Level Salt Lake Center
Wed 04:33:22 AM 40.0031 -109.6244 256° West 342 394 38,000  Level Salt Lake Center
Wed 04:34:23 AM 39.9806 -109.7383 255° West 342 394 38,000  Level Salt Lake Center
Wed 04:35:23 AM 39.9572 -109.8506 255° West 338 389 38,000  Level Salt Lake Center
Wed 04:36:23 AM 39.9306 -109.9794 254° West 333 383 38,000  Level Salt Lake Center
Wed 04:37:23 AM 39.9075 -110.0864 255° West 327 376 38,000  Level Salt Lake Center
Wed 04:38:23 AM 39.8853 -110.1933 255° West 322 371 38,000  Level Salt Lake Center
Wed 04:39:23 AM 39.8589 -110.3178 255° West 320 368 38,000  Level Salt Lake Center
Wed 04:40:24 AM 39.8353 -110.4311 254° West 330 380 38,000  Level Salt Lake Center
Wed 04:41:24 AM 39.8100 -110.5494 255° West 346 398 38,000  Level Salt Lake Center
Wed 04:42:24 AM 39.7856 -110.6683 254° West 353 406 38,000  Level Salt Lake Center
Wed 04:43:24 AM 39.7561 -110.8044 255° West 352 405 38,000  Level Salt Lake Center
Wed 04:44:24 AM 39.7311 -110.9219 254° West 353 406 38,000  Level Salt Lake Center
Wed 04:45:24 AM 39.7064 -111.0347 254° West 344 396 38,000  Level Salt Lake Center
Wed 04:46:24 AM 39.6814 -111.1481 254° West 341 392 38,000  Level Salt Lake Center
Wed 04:47:25 AM 39.6528 -111.2772 254° West 336 387 38,000  Level Salt Lake Center
Wed 04:48:25 AM 39.6272 -111.3956 254° West 338 389 38,000  Level Salt Lake Center
Wed 04:49:25 AM 39.6006 -111.5147 254° West 340 391 38,000  Level Salt Lake Center
Wed 04:50:25 AM 39.5739 -111.6336 254° West 340 391 38,000  Level Salt Lake Center
Wed 04:51:25 AM 39.5472 -111.7508 253° West 338 389 38,000  Level Salt Lake Center
Wed 04:52:25 AM 39.5247 -111.8483 254° West 337 388 38,000  Level Salt Lake Center
Wed 04:53:25 AM 39.4992 -111.9628 253° West 331 381 38,000  Level Salt Lake Center
Wed 04:54:25 AM 39.4728 -112.0767 254° West 328 377 38,000  Level Salt Lake Center
Wed 04:55:25 AM 39.4469 -112.1906 253° West 327 376 38,000  Level Salt Lake Center
Wed 04:56:26 AM 39.4211 -112.3022 253° West 324 373 38,000  Level Salt Lake Center
Wed 04:57:26 AM 39.3944 -112.4147 253° West 324 373 38,000  Level Salt Lake Center
Wed 04:58:26 AM 39.3683 -112.5278 253° West 325 374 38,000  Level Salt Lake Center
Wed 04:59:26 AM 39.3383 -112.6511 253° West 327 376 38,000  Level Salt Lake Center
Wed 05:00:26 AM 39.3164 -112.7419 254° West 327 376 38,000  Level Salt Lake Center
Wed 05:01:26 AM 39.2897 -112.8619 253° West 335 386 38,000  Level Salt Lake Center
Wed 05:02:26 AM 39.2619 -112.9789 253° West 337 388 38,000  Level Salt Lake Center
Wed 05:03:26 AM 39.2342 -113.0947 253° West 335 386 38,000  Level Salt Lake Center
Wed 05:04:26 AM 39.2058 -113.2114 252° West 336 387 38,000  Level Salt Lake Center
Wed 05:05:26 AM 39.1767 -113.3292 254° West 338 389 38,000  Level Salt Lake Center
Wed 05:06:26 AM 39.1492 -113.4494 253° West 342 394 38,000  Level Salt Lake Center
Wed 05:07:27 AM 39.1208 -113.5669 252° West 341 392 38,000  Level Salt Lake Center
Wed 05:08:27 AM 39.0919 -113.6839 252° West 340 391 38,000  Level Salt Lake Center
Wed 05:09:27 AM 39.0625 -113.8036 253° West 343 395 38,000  Level Salt Lake Center
Wed 05:10:27 AM 39.0328 -113.9258 252° West 350 403 38,000  Level Salt Lake Center
Wed 05:11:27 AM 39.0022 -114.0461 252° West 350 403 38,000  Level Salt Lake Center
Wed 05:12:27 AM 38.9711 -114.1692 253° West 354 407 38,000  Level Salt Lake Center
Wed 05:13:27 AM 38.9406 -114.2936 252° West 359 413 38,000  Level Salt Lake Center
Wed 05:14:27 AM 38.9158 -114.3931 252° West 360 414 38,000  Level Salt Lake Center
Wed 05:15:27 AM 38.8850 -114.5169 252° West 360 414 38,000  Level Salt Lake Center
Wed 05:16:27 AM 38.8536 -114.6389 252° West 357 411 38,000  Level Salt Lake Center
Wed 05:17:27 AM 38.8217 -114.7617 252° West 357 411 38,000  Level Salt Lake Center
Wed 05:18:28 AM 38.7906 -114.8839 252° West 357 411 38,000  Level Salt Lake Center
Wed 05:19:28 AM 38.7592 -115.0069 251° West 358 412 38,000  Level Salt Lake Center
Wed 05:20:28 AM 38.7250 -115.1306 252° West 361 415 38,000  Level Salt Lake Center
Wed 05:21:28 AM 38.6928 -115.2539 252° West 362 417 38,000  Level Salt Lake Center
Wed 05:22:28 AM 38.6600 -115.3839 251° West 359 413 38,000  Level Salt Lake Center
Wed 05:23:28 AM 38.6281 -115.5033 251° West 356 410 38,000  Level Salt Lake Center
Wed 05:24:28 AM 38.5961 -115.6231 252° West 355 409 38,000  Level Salt Lake Center
Wed 05:25:28 AM 38.5647 -115.7442 251° West 357 411 38,000  Level Salt Lake Center
Wed 05:26:28 AM 38.5325 -115.8636 251° West 356 410 38,000  Level Salt Lake Center
Wed 05:27:28 AM 38.5003 -115.9831 251° West 356 410 38,000  Level Salt Lake Center
Wed 05:28:28 AM 38.4678 -116.1028 251° West 356 410 38,000  Level Salt Lake Center
Wed 05:29:29 AM 38.4350 -116.2236 251° West 359 413 38,000  Level Salt Lake Center
Wed 05:30:29 AM 38.4025 -116.3433 251° West 358 412 38,000  Level Salt Lake Center
Wed 05:31:29 AM 38.3706 -116.4628 251° West 357 411 38,000  Level Salt Lake Center
Wed 05:32:29 AM 38.3378 -116.5825 251° West 357 411 38,000  Level Salt Lake Center
Wed 05:33:29 AM 38.3050 -116.7008 251° West 355 409 38,000  Level Salt Lake Center
Wed 05:34:29 AM 38.2719 -116.8211 257° West 358 412 38,000  Level Salt Lake Center
Wed 05:35:29 AM 38.2492 -116.9472 261° West 373 429 38,000  Level Salt Lake Center
Wed 05:36:29 AM 38.2331 -117.0742 260° West 368 423 38,000 -500 Level Salt Lake Center
Wed 06:04:18 AM 37.6500 -120.8000 262° West 470 541 23,600 -583 Descending Northern Cal TRACON
Wed 06:05:18 AM 37.6333 -120.9500 261° West 431 496 21,200 -2,250 Descending Northern Cal TRACON
Wed 06:06:18 AM 37.6167 -121.0833 261° West 403 464 19,100 -2,050 Descending Northern Cal TRACON
Wed 06:07:18 AM 37.6000 -121.2167 261° West 379 436 17,100 -2,050 Descending Northern Cal TRACON
Wed 06:08:18 AM 37.5833 -121.3500 250° West 362 417 15,000 -2,083 Descending Northern Cal TRACON
Wed 06:09:19 AM 37.5500 -121.4667 260° West 359 413 12,900 -2,083 Descending Northern Cal TRACON
Wed 06:10:19 AM 37.5333 -121.5833 260° West 348 400 10,800 -1,800 Descending Northern Cal TRACON
Wed 06:11:19 AM 37.5167 -121.7000 270° West 283 326 9,300 -1,750 Descending Northern Cal TRACON
Wed 06:12:19 AM 37.5167 -121.7833 260° West 271 312 7,300 -726 Descending Northern Cal TRACON
Wed 06:14:54 AM 37.4833 -122.0167 293° West 254 292 6,700 -597 Descending Northern Cal TRACON
Wed 06:16:00 AM 37.5167 -122.1167 302° West 264 304 5,100 -1,654 Descending Northern Cal TRACON
Wed 06:17:01 AM 37.5500 -122.1833 293° West 224 258 3,200 -1,488 Descending Northern Cal TRACON
Wed 06:18:01 AM 37.5667 -122.2333 293° West 167 192 2,100 -950 Descending Northern Cal TRACON
Wed 06:19:01 AM 37.5833 -122.2833 293° West 143 165 1,300 -750 Descending Northern Cal TRACON
Wed 06:20:01 AM 37.6000 -122.3333 302° West 140 161 600 -700 Descending Northern Cal TRACON
Wed 06:27:15 AM 37.6167 -122.3667 289° West  Level FlightAware Approximate
Wed 06:28:15 AM 37.6527 -122.4954 109° East  Level Estimated
Wed 06:29:15 AM 37.6167 -122.3667 289° West  Level FlightAware Approximate
Wed 06:30:15 AM 37.6527 -122.4954 109° East  Level Estimated
Wed 06:31:15 AM 37.6167 -122.3667 289° West  Level FlightAware Approximate
Wed 06:32:15 AM 37.6527 -122.4954 109° East  Level Estimated
Wed 06:33:15 AM 37.6167 -122.3667 289° West  Level FlightAware Approximate
Wed 06:34:15 AM 37.6527 -122.4954 109° East  Level Estimated
Wed 06:35:15 AM 37.6167 -122.3667 289° West  Level FlightAware Approximate
Wed 06:36:15 AM 37.6527 -122.4954 109° East  Level Estimated
Wed 06:37:15 AM 37.6167 -122.3667 289° West  Level FlightAware Approximate
Wed 06:38:15 AM 37.6527 -122.4954 289° West  Level Estimated

Login

Don't have an account? Register now (free) for customized features, flight alerts, and more!